Time;durP1;ratioP1;P1;durP2;ratioP2;P2;SDS_P1;SDS_P2;PMS_P1;PMS_P2;Temp;Humidity;BMP_temperature;BMP_pressure;BME280_temperature;BME280_humidity;BME280_pressure;Samples;Min_cycle;Max_cycle;Signal;HPM_P1;HPM_P2
2022/08/22 00:02:11;;;;;;;2.67;1.30;;;23.80;54.10;;;;;;4998571;28;20482;-84
2022/08/22 00:05:00;;;;;;;1.92;1.00;;;23.80;54.10;;;;;;4998534;28;20045;-83
2022/08/22 00:07:54;;;;;;;1.92;1.13;;;23.80;54.10;;;;;;4998691;28;20359;-83
2022/08/22 00:10:30;;;;;;;1.75;1.15;;;23.80;54.20;;;;;;4998643;28;20029;-84
2022/08/22 00:13:09;;;;;;;1.48;1.10;;;23.70;54.70;;;;;;4982665;28;20026;-84
2022/08/22 00:15:42;;;;;;;3.08;1.20;;;23.70;54.20;;;;;;4982314;28;20428;-83
2022/08/22 00:18:22;;;;;;;2.13;1.20;;;23.70;54.20;;;;;;4998428;28;20459;-84
2022/08/22 00:21:09;;;;;;;1.85;1.20;;;23.70;54.20;;;;;;5015795;28;20099;-84
2022/08/22 00:23:51;;;;;;;2.33;1.38;;;23.70;54.20;;;;;;4998845;28;20113;-85
2022/08/22 00:26:32;;;;;;;2.40;1.10;;;23.70;54.30;;;;;;4999507;28;20010;-84
2022/08/22 00:29:05;;;;;;;1.05;0.98;;;23.60;54.20;;;;;;5019616;28;20037;-83
2022/08/22 00:31:45;;;;;;;2.00;1.20;;;23.60;54.20;;;;;;4991495;28;20025;-84
2022/08/22 00:34:21;;;;;;;1.50;0.90;;;23.60;54.30;;;;;;4998148;28;20026;-83
2022/08/22 00:37:01;;;;;;;1.23;1.00;;;23.60;54.30;;;;;;4998824;28;20393;-85
2022/08/22 00:39:37;;;;;;;1.80;1.02;;;23.60;54.40;;;;;;4981638;28;20038;-84
2022/08/22 00:42:45;;;;;;;2.20;1.30;;;23.60;54.40;;;;;;4997808;28;20177;-83
2022/08/22 00:45:22;;;;;;;2.60;1.10;;;23.60;54.50;;;;;;4979543;28;20081;-84
2022/08/22 00:48:02;;;;;;;2.15;1.00;;;23.50;54.30;;;;;;5014879;28;20079;-83
2022/08/22 00:51:00;;;;;;;2.40;1.30;;;23.50;54.40;;;;;;5015388;28;20057;-83
2022/08/22 00:53:47;;;;;;;1.15;1.00;;;23.50;54.50;;;;;;5015453;28;20057;-83
2022/08/22 00:56:22;;;;;;;2.33;1.10;;;23.50;54.50;;;;;;4997533;28;20069;-84
2022/08/22 00:59:15;;;;;;;1.92;1.15;;;23.50;54.60;;;;;;4980744;28;20030;-84
2022/08/22 01:02:11;;;;;;;2.60;1.38;;;23.50;54.70;;;;;;4997668;28;20041;-84
2022/08/22 01:05:15;;;;;;;3.30;1.38;;;23.40;54.70;;;;;;4997765;28;20036;-83
2022/08/22 01:07:57;;;;;;;1.48;0.95;;;23.40;54.70;;;;;;5017369;28;20520;-83
2022/08/22 01:11:04;;;;;;;1.95;1.15;;;23.40;54.60;;;;;;4997921;28;20040;-84
2022/08/22 01:13:55;;;;;;;1.27;0.90;;;23.40;54.80;;;;;;4997553;28;20034;-84
2022/08/22 01:17:09;;;;;;;1.65;1.10;;;23.40;54.80;;;;;;5014523;28;20037;-83
2022/08/22 01:20:00;;;;;;;1.33;0.95;;;23.30;54.80;;;;;;4967239;28;20054;-83
2022/08/22 01:22:53;;;;;;;0.98;0.90;;;23.30;54.80;;;;;;4996636;28;20033;-84
2022/08/22 01:26:04;;;;;;;1.60;1.00;;;23.30;54.90;;;;;;4996879;28;20503;-84
2022/08/22 01:28:57;;;;;;;1.23;1.00;;;23.20;54.90;;;;;;4997387;28;20026;-83
2022/08/22 01:31:41;;;;;;;1.65;1.00;;;23.30;55.00;;;;;;5014095;28;20022;-83
2022/08/22 01:34:25;;;;;;;1.10;1.00;;;23.20;55.00;;;;;;5014106;28;20488;-83
2022/08/22 01:36:54;;;;;;;1.30;1.00;;;23.20;55.10;;;;;;4997342;28;20039;-83
2022/08/22 01:39:54;;;;;;;1.38;1.00;;;23.20;55.00;;;;;;5014462;28;20527;-84
2022/08/22 01:42:52;;;;;;;1.65;1.10;;;23.20;55.10;;;;;;5014207;28;20057;-83
2022/08/22 01:45:36;;;;;;;1.77;1.20;;;23.20;55.70;;;;;;4996712;28;20041;-83
2022/08/22 01:48:30;;;;;;;2.08;1.17;;;23.20;55.00;;;;;;4997324;28;20080;-82
2022/08/22 01:51:08;;;;;;;2.30;1.10;;;23.10;55.10;;;;;;5013580;28;20054;-84
2022/08/22 01:53:53;;;;;;;1.25;1.00;;;23.10;55.00;;;;;;5013998;28;20041;-83
2022/08/22 01:56:21;;;;;;;2.35;1.15;;;23.10;55.10;;;;;;5000579;28;20485;-83
2022/08/22 01:59:10;;;;;;;1.90;1.30;;;23.10;55.00;;;;;;4983900;28;20049;-83
2022/08/22 02:01:36;;;;;;;1.35;1.20;;;23.10;55.20;;;;;;5000806;28;20033;-82
2022/08/22 02:04:13;;;;;;;1.42;1.00;;;23.10;55.10;;;;;;5001211;28;20466;-83
2022/08/22 02:07:01;;;;;;;1.75;1.20;;;23.10;55.20;;;;;;5018161;28;20034;-84
2022/08/22 02:09:52;;;;;;;1.63;1.00;;;23.10;55.20;;;;;;4984936;28;20041;-84
2022/08/22 02:12:36;;;;;;;2.15;1.23;;;23.10;55.30;;;;;;5001224;28;20096;-83
2022/08/22 02:15:17;;;;;;;2.40;1.30;;;23.10;55.20;;;;;;5001339;28;20034;-84
2022/08/22 02:18:04;;;;;;;2.28;1.20;;;23.00;55.30;;;;;;5022936;28;20080;-83
2022/08/22 02:20:54;;;;;;;2.95;1.20;;;23.00;55.30;;;;;;5020952;28;20041;-82
2022/08/22 02:23:28;;;;;;;3.95;1.55;;;23.00;55.30;;;;;;5001490;28;20030;-83
2022/08/22 02:26:06;;;;;;;3.05;1.33;;;23.00;55.30;;;;;;5000604;28;20466;-84
2022/08/22 02:28:54;;;;;;;1.75;1.10;;;23.00;55.40;;;;;;5017774;28;20033;-83
2022/08/22 02:31:32;;;;;;;1.38;0.90;;;23.00;55.50;;;;;;5000056;28;20044;-83
2022/08/22 02:34:01;;;;;;;2.25;1.30;;;23.00;55.50;;;;;;5000611;28;20058;-84
2022/08/22 02:36:52;;;;;;;1.65;1.30;;;22.90;55.40;;;;;;4999808;28;20022;-83
2022/08/22 02:39:56;;;;;;;1.98;1.10;;;23.00;55.60;;;;;;5000336;28;20034;-82
2022/08/22 02:42:39;;;;;;;1.67;1.30;;;22.90;55.40;;;;;;4956842;29;20461;-84
2022/08/22 02:45:27;;;;;;;1.30;1.20;;;22.90;55.40;;;;;;4942919;29;20524;-84
2022/08/22 02:48:15;;;;;;;2.60;1.40;;;22.90;55.60;;;;;;4973163;28;20044;-83
2022/08/22 02:51:00;;;;;;;1.45;1.13;;;22.90;55.60;;;;;;5003566;28;20053;-84
2022/08/22 02:53:45;;;;;;;1.98;1.00;;;22.90;55.70;;;;;;5017583;28;20034;-83
2022/08/22 02:56:21;;;;;;;1.98;1.40;;;22.90;55.70;;;;;;4984213;28;20466;-83
2022/08/22 02:58:55;;;;;;;1.63;1.23;;;22.90;55.70;;;;;;5016669;28;20129;-84
2022/08/22 03:01:37;;;;;;;1.75;1.30;;;22.80;55.70;;;;;;5016566;28;20037;-84
2022/08/22 03:04:30;;;;;;;1.83;1.45;;;22.90;55.80;;;;;;5000140;28;20032;-83
2022/08/22 03:07:12;;;;;;;4.75;1.25;;;22.80;55.80;;;;;;5016275;28;20061;-84
2022/08/22 03:09:56;;;;;;;1.98;1.35;;;22.90;55.90;;;;;;4999166;28;20038;-84
2022/08/22 03:12:30;;;;;;;1.90;1.20;;;22.80;55.80;;;;;;5017245;28;20037;-83
2022/08/22 03:14:57;;;;;;;;;;;22.80;55.80;;;;;;4999934;28;20281;-84
2022/08/22 03:17:44;;;;;;;2.60;1.40;;;22.80;55.70;;;;;;4999756;28;19909;-83
2022/08/22 03:20:20;;;;;;;2.40;1.17;;;22.80;55.70;;;;;;5017099;28;20030;-84
2022/08/22 03:23:36;;;;;;;1.70;1.30;;;22.80;55.90;;;;;;4999488;28;20111;-84
2022/08/22 03:26:08;;;;;;;2.78;1.35;;;22.80;56.10;;;;;;4991012;28;20050;-83
2022/08/22 03:29:03;;;;;;;2.15;1.30;;;22.80;56.00;;;;;;4999785;28;20037;-84
2022/08/22 03:31:30;;;;;;;3.33;1.40;;;22.70;56.10;;;;;;4992252;28;20045;-82
2022/08/22 03:34:22;;;;;;;2.03;1.23;;;22.70;56.00;;;;;;4982979;28;20026;-83
2022/08/22 03:37:42;;;;;;;1.10;1.00;;;22.70;56.20;;;;;;5016754;28;20053;-83
2022/08/22 03:40:22;;;;;;;1.48;1.20;;;22.70;56.20;;;;;;4956117;29;20122;-84
2022/08/22 03:43:16;;;;;;;1.45;1.10;;;22.70;56.10;;;;;;4992994;28;20045;-84
2022/08/22 03:46:19;;;;;;;1.45;1.25;;;22.60;56.20;;;;;;4998775;28;20026;-83
2022/08/22 03:49:13;;;;;;;1.70;1.30;;;22.60;56.20;;;;;;5016450;28;20030;-83
2022/08/22 03:52:23;;;;;;;2.67;1.30;;;22.70;56.30;;;;;;4998448;28;20050;-84
2022/08/22 03:55:07;;;;;;;3.08;1.23;;;22.60;56.30;;;;;;4966984;28;20045;-83
2022/08/22 03:57:53;;;;;;;2.90;1.42;;;22.70;56.20;;;;;;5016368;28;20462;-82
2022/08/22 04:00:50;;;;;;;1.27;1.10;;;22.60;56.20;;;;;;4999514;28;20033;-84
2022/08/22 04:03:34;;;;;;;1.98;1.20;;;22.60;56.40;;;;;;4999636;28;20026;-82
2022/08/22 04:06:03;;;;;;;1.92;1.25;;;22.60;56.40;;;;;;5009576;28;20034;-84
2022/08/22 04:09:01;;;;;;;2.13;1.35;;;22.60;56.30;;;;;;5038453;28;20022;-83
2022/08/22 04:11:54;;;;;;;2.35;1.35;;;22.50;56.50;;;;;;5011923;28;20040;-82
2022/08/22 04:14:26;;;;;;;1.85;1.30;;;22.60;56.50;;;;;;4998963;28;20030;-82
2022/08/22 04:17:05;;;;;;;2.03;1.60;;;22.60;56.50;;;;;;4999018;28;20026;-83
2022/08/22 04:19:55;;;;;;;3.03;1.65;;;22.50;56.50;;;;;;4998330;28;20105;-83
2022/08/22 04:22:50;;;;;;;1.73;1.40;;;22.50;56.60;;;;;;4998786;28;20038;-83
2022/08/22 04:25:25;;;;;;;1.67;1.23;;;22.50;56.50;;;;;;4999828;28;20030;-84
2022/08/22 04:28:21;;;;;;;2.55;1.48;;;22.50;56.50;;;;;;5003227;28;20038;-83
2022/08/22 04:31:04;;;;;;;2.25;1.30;;;22.50;56.60;;;;;;5003075;28;20152;-83
2022/08/22 04:33:46;;;;;;;3.47;1.73;;;22.50;56.60;;;;;;4981906;28;20030;-83
2022/08/22 04:36:21;;;;;;;3.08;1.83;;;22.50;56.60;;;;;;4998110;28;20034;-83
2022/08/22 04:38:56;;;;;;;2.50;1.33;;;22.50;56.60;;;;;;4997738;28;20026;-83
2022/08/22 04:41:47;;;;;;;2.45;1.42;;;22.50;56.70;;;;;;4997906;28;20087;-83
2022/08/22 04:44:16;;;;;;;2.53;1.35;;;22.40;56.70;;;;;;4997444;28;20072;-83
2022/08/22 04:47:21;;;;;;;2.45;1.40;;;22.50;56.70;;;;;;4998137;28;20022;-83
2022/08/22 04:50:20;;;;;;;2.22;1.23;;;22.50;56.80;;;;;;4980672;28;20049;-84
2022/08/22 04:53:36;;;;;;;2.13;1.17;;;22.40;56.70;;;;;;5002404;28;20132;-84
2022/08/22 04:56:18;;;;;;;2.10;1.42;;;22.40;56.80;;;;;;4916361;29;20039;-83
2022/08/22 04:58:59;;;;;;;2.45;1.40;;;22.40;56.70;;;;;;4900558;29;20046;-84
2022/08/22 05:01:38;;;;;;;2.45;1.40;;;22.40;56.80;;;;;;4966686;28;20042;-84
2022/08/22 05:04:17;;;;;;;2.55;1.55;;;22.40;56.90;;;;;;4998259;28;20518;-83
2022/08/22 05:06:48;;;;;;;2.17;1.30;;;22.40;56.90;;;;;;4997784;28;20030;-84
2022/08/22 05:09:19;;;;;;;2.50;1.40;;;22.40;56.90;;;;;;5001557;28;20492;-83
2022/08/22 05:11:50;;;;;;;2.50;1.30;;;22.40;56.90;;;;;;5020447;28;20037;-83
2022/08/22 05:14:24;;;;;;;3.25;1.40;;;22.40;56.90;;;;;;5021197;28;20030;-83
2022/08/22 05:16:53;;;;;;;2.60;1.40;;;22.40;56.90;;;;;;5001800;28;20026;-83
2022/08/22 05:19:33;;;;;;;2.33;1.40;;;22.40;56.90;;;;;;4982672;28;20026;-82
2022/08/22 05:22:00;;;;;;;3.83;1.52;;;22.40;56.90;;;;;;4981678;28;20034;-83
2022/08/22 05:24:36;;;;;;;3.45;1.73;;;22.40;56.90;;;;;;5014790;28;20030;-82
2022/08/22 05:27:42;;;;;;;1.25;1.15;;;22.40;57.10;;;;;;4980957;28;20033;-82
2022/08/22 05:30:15;;;;;;;2.22;1.30;;;22.30;57.10;;;;;;5013495;28;20034;-81
2022/08/22 05:32:46;;;;;;;1.70;1.13;;;22.40;57.00;;;;;;4980747;28;20352;-82
2022/08/22 05:35:15;;;;;;;2.13;1.40;;;22.30;57.00;;;;;;5014635;28;20108;-83
2022/08/22 05:37:48;;;;;;;2.72;1.50;;;22.30;57.00;;;;;;4979866;28;20030;-85
2022/08/22 05:40:21;;;;;;;2.65;1.67;;;22.30;57.10;;;;;;4980712;28;20083;-82
2022/08/22 05:42:47;;;;;;;1.83;1.15;;;22.30;57.10;;;;;;4997506;28;20092;-82
2022/08/22 05:45:14;;;;;;;2.30;1.30;;;22.30;57.10;;;;;;4980133;28;20037;-82
2022/08/22 05:47:47;;;;;;;1.98;1.40;;;22.30;57.10;;;;;;4980299;28;20468;-81
2022/08/22 05:50:18;;;;;;;2.42;1.42;;;22.30;57.80;;;;;;4996212;28;20132;-82
2022/08/22 05:53:07;;;;;;;2.60;1.40;;;22.30;57.20;;;;;;4996430;28;20405;-83
2022/08/22 05:55:36;;;;;;;2.20;1.40;;;22.30;57.20;;;;;;5013627;28;20024;-81
2022/08/22 05:58:25;;;;;;;2.13;1.42;;;22.30;57.10;;;;;;4981668;28;20033;-82
2022/08/22 06:00:57;;;;;;;2.33;1.33;;;22.30;57.30;;;;;;5003692;28;20064;-82
2022/08/22 06:03:31;;;;;;;2.17;1.35;;;22.30;57.20;;;;;;5002666;28;20447;-82
2022/08/22 06:06:02;;;;;;;2.05;1.20;;;22.30;57.20;;;;;;4996849;28;20037;-83
2022/08/22 06:08:36;;;;;;;2.50;1.40;;;22.30;57.30;;;;;;4988235;28;20062;-83
2022/08/22 06:11:14;;;;;;;2.42;1.60;;;22.30;57.30;;;;;;5007431;28;20029;-82
2022/08/22 06:14:00;;;;;;;2.65;1.60;;;22.30;57.30;;;;;;4996401;28;20034;-82
2022/08/22 06:16:55;;;;;;;3.40;1.80;;;22.30;57.40;;;;;;4996233;28;20038;-83
2022/08/22 06:19:22;;;;;;;2.38;1.30;;;22.20;57.40;;;;;;4979661;28;20041;-83
2022/08/22 06:21:50;;;;;;;3.05;1.30;;;22.20;57.40;;;;;;4980207;28;20387;-83
2022/08/22 06:24:25;;;;;;;2.00;1.52;;;22.30;57.50;;;;;;4996482;28;20447;-83
2022/08/22 06:26:53;;;;;;;2.63;1.50;;;22.20;57.50;;;;;;5013858;28;20109;-83
2022/08/22 06:29:30;;;;;;;2.65;1.55;;;22.30;57.50;;;;;;4980358;28;20079;-84
2022/08/22 06:31:58;;;;;;;3.08;1.60;;;22.30;57.60;;;;;;4996645;28;20037;-83
2022/08/22 06:34:28;;;;;;;2.25;1.60;;;22.30;57.50;;;;;;5013906;28;20033;-83
2022/08/22 06:36:56;;;;;;;4.78;1.80;;;22.30;57.60;;;;;;5014042;28;20081;-84
2022/08/22 06:39:30;;;;;;;2.83;1.48;;;22.30;57.60;;;;;;5013754;28;20058;-83
2022/08/22 06:42:10;;;;;;;2.65;1.60;;;22.30;57.70;;;;;;4999488;28;20053;-85
2022/08/22 06:44:42;;;;;;;1.45;1.20;;;22.30;57.70;;;;;;4999953;28;20038;-85
2022/08/22 06:47:31;;;;;;;2.42;1.38;;;22.30;58.30;;;;;;5000257;28;20026;-85
2022/08/22 06:50:06;;;;;;;3.05;1.52;;;22.30;57.70;;;;;;4983960;28;20120;-85
2022/08/22 06:52:45;;;;;;;2.72;1.50;;;22.30;57.70;;;;;;5000317;28;20041;-85
2022/08/22 06:55:12;;;;;;;1.77;1.30;;;22.30;57.70;;;;;;4984351;28;20038;-83
2022/08/22 06:57:47;;;;;;;2.85;1.50;;;22.30;57.70;;;;;;4984520;28;20041;-85
2022/08/22 07:00:15;;;;;;;2.10;1.50;;;22.30;57.80;;;;;;4999760;28;20037;-85
2022/08/22 07:02:50;;;;;;;2.63;1.58;;;22.30;57.70;;;;;;5017440;28;20064;-85
2022/08/22 07:05:20;;;;;;;2.00;1.30;;;22.30;57.70;;;;;;4999964;28;20045;-84
2022/08/22 07:07:48;;;;;;;2.42;1.67;;;22.40;57.80;;;;;;5017335;28;20036;-85
2022/08/22 07:10:15;;;;;;;2.70;1.60;;;22.40;57.80;;;;;;5017080;28;20026;-85
2022/08/22 07:12:47;;;;;;;2.58;1.52;;;22.40;57.80;;;;;;4999965;28;20029;-85
2022/08/22 07:15:33;;;;;;;2.55;1.40;;;22.40;57.80;;;;;;5016640;28;20022;-84
2022/08/22 07:18:03;;;;;;;2.05;1.35;;;22.40;57.90;;;;;;5017088;28;20038;-85
2022/08/22 07:20:37;;;;;;;2.20;1.55;;;22.40;57.80;;;;;;4983850;28;20065;-85
2022/08/22 07:23:10;;;;;;;1.73;1.30;;;22.40;57.80;;;;;;5017508;28;20481;-85
2022/08/22 07:26:05;;;;;;;1.77;1.40;;;22.50;57.80;;;;;;4999538;28;20053;-85
2022/08/22 07:28:41;;;;;;;2.50;1.42;;;22.50;57.90;;;;;;4992408;28;20049;-85
2022/08/22 07:31:32;;;;;;;3.70;1.55;;;22.50;57.80;;;;;;4999696;28;20042;-84
2022/08/22 07:34:35;;;;;;;2.17;1.40;;;22.50;57.80;;;;;;4999973;28;20367;-85
2022/08/22 07:37:17;;;;;;;2.45;1.50;;;22.50;57.90;;;;;;4999331;28;20478;-85
2022/08/22 07:39:50;;;;;;;1.88;1.38;;;22.50;57.80;;;;;;5016782;28;20041;-85
2022/08/22 07:42:21;;;;;;;2.40;1.40;;;22.60;57.80;;;;;;4982749;28;20026;-85
2022/08/22 07:45:31;;;;;;;2.42;1.70;;;22.60;57.90;;;;;;4998946;28;20026;-85
2022/08/22 07:48:32;;;;;;;1.55;1.10;;;22.60;58.00;;;;;;4940868;29;20035;-85
2022/08/22 07:51:12;;;;;;;3.05;1.50;;;22.60;57.90;;;;;;4953287;29;20051;-85
2022/08/22 07:53:47;;;;;;;1.60;1.30;;;22.60;57.80;;;;;;4992531;28;20042;-86
2022/08/22 07:56:41;;;;;;;2.13;1.25;;;22.60;57.80;;;;;;5028925;28;20106;-86
2022/08/22 07:59:15;;;;;;;2.60;1.73;;;22.60;57.90;;;;;;5005753;28;20034;-84
2022/08/22 08:01:55;;;;;;;;;;;22.70;57.80;;;;;;5016780;28;20119;-82
2022/08/22 08:04:32;;;;;;;2.03;1.30;;;22.70;57.60;;;;;;4998904;28;20316;-82
2022/08/22 08:07:00;;;;;;;2.35;1.50;;;22.80;57.70;;;;;;4998665;28;20034;-83
2022/08/22 08:09:33;;;;;;;3.08;1.42;;;22.70;57.70;;;;;;4998509;28;20025;-83
2022/08/22 08:12:02;;;;;;;2.17;1.50;;;22.80;57.80;;;;;;4982523;28;20037;-83
2022/08/22 08:14:29;;;;;;;2.75;1.60;;;22.80;57.80;;;;;;4998197;28;20049;-82
2022/08/22 08:17:00;;;;;;;2.25;1.27;;;22.80;57.80;;;;;;4998241;28;20037;-83
2022/08/22 08:19:27;;;;;;;2.47;1.50;;;22.90;57.80;;;;;;5015650;28;20034;-85
2022/08/22 08:21:55;;;;;;;2.53;1.33;;;22.90;57.80;;;;;;4998610;28;20034;-83
2022/08/22 08:24:42;;;;;;;2.97;1.65;;;23.00;57.80;;;;;;4982242;28;20037;-83
2022/08/22 08:30:20;;;;;;;2.47;1.60;;;23.00;57.70;;;;;;4998033;28;20033;-83
2022/08/22 08:32:54;;;;;;;1.52;1.42;;;23.10;57.70;;;;;;4997966;28;20021;-84
2022/08/22 08:35:41;;;;;;;1.63;1.13;;;23.10;57.60;;;;;;4981570;28;20114;-83
2022/08/22 08:38:21;;;;;;;2.85;1.55;;;23.10;57.60;;;;;;5015421;28;20044;-83
2022/08/22 08:41:07;;;;;;;2.63;1.27;;;23.20;57.60;;;;;;4998302;28;20045;-83
2022/08/22 08:43:50;;;;;;;2.78;1.63;;;23.20;57.50;;;;;;5014917;28;20022;-84
2022/08/22 08:46:48;;;;;;;3.08;1.60;;;23.30;57.50;;;;;;4997193;28;20033;-83
2022/08/22 08:49:28;;;;;;;2.63;1.55;;;23.20;57.50;;;;;;5014656;28;20501;-83
2022/08/22 08:52:03;;;;;;;2.55;1.52;;;23.30;57.30;;;;;;4997190;28;20050;-81
2022/08/22 08:54:32;;;;;;;2.33;1.40;;;23.40;57.40;;;;;;4996900;28;20060;-85
2022/08/22 08:57:10;;;;;;;2.30;1.38;;;23.40;57.40;;;;;;4998199;28;20033;-83
2022/08/22 08:59:45;;;;;;;3.60;1.58;;;23.50;57.40;;;;;;4997606;28;20040;-84
2022/08/22 09:02:27;;;;;;;2.78;1.60;;;23.50;57.20;;;;;;4998780;28;20422;-91
2022/08/22 09:05:07;;;;;;;2.65;1.60;;;23.50;57.20;;;;;;4997593;28;20038;-90
2022/08/22 09:07:44;;;;;;;2.95;1.70;;;23.60;57.20;;;;;;4997764;28;20034;-89
2022/08/22 09:10:40;;;;;;;1.58;1.38;;;23.60;57.00;;;;;;4982070;28;20026;-89
2022/08/22 09:13:36;;;;;;;3.05;1.70;;;23.70;57.10;;;;;;4998018;28;20030;-89
2022/08/22 09:16:23;;;;;;;2.08;1.42;;;23.80;57.10;;;;;;4997743;28;20080;-88
2022/08/22 09:19:10;;;;;;;2.17;1.40;;;23.80;57.00;;;;;;4997548;28;20046;-88
2022/08/22 09:21:51;;;;;;;2.22;1.48;;;23.80;56.90;;;;;;4997239;28;20034;-84
2022/08/22 09:24:20;;;;;;;3.40;1.75;;;23.80;56.90;;;;;;5014503;28;20026;-86
2022/08/22 09:26:51;;;;;;;2.42;1.50;;;23.90;56.80;;;;;;4997114;28;20490;-85
2022/08/22 09:29:44;;;;;;;2.80;1.60;;;24.00;56.80;;;;;;4997659;28;20032;-85
2022/08/22 09:32:41;;;;;;;2.08;1.48;;;24.00;56.80;;;;;;5026397;28;20473;-85
2022/08/22 09:35:21;;;;;;;2.38;1.60;;;24.10;56.70;;;;;;5021926;28;20040;-84
2022/08/22 09:37:56;;;;;;;1.88;1.42;;;24.10;56.50;;;;;;5018483;28;20113;-84
2022/08/22 09:40:24;;;;;;;2.63;1.40;;;24.20;56.60;;;;;;5017010;28;20030;-83
2022/08/22 09:43:10;;;;;;;2.60;1.60;;;24.30;56.40;;;;;;5019716;28;20086;-84
2022/08/22 09:46:00;;;;;;;3.55;1.38;;;24.40;56.50;;;;;;5000468;28;20109;-84
2022/08/22 09:48:38;;;;;;;2.90;1.58;;;24.50;56.30;;;;;;4997747;28;20084;-85
2022/08/22 09:51:25;;;;;;;2.67;1.50;;;24.50;56.20;;;;;;4996986;28;20045;-85
2022/08/22 09:54:21;;;;;;;2.47;1.63;;;24.60;56.10;;;;;;4997526;28;20396;-86
2022/08/22 09:57:18;;;;;;;2.60;1.58;;;24.60;56.10;;;;;;4980777;28;20132;-85
2022/08/22 10:00:22;;;;;;;1.70;1.02;;;24.70;56.00;;;;;;4977449;28;20045;-85
2022/08/22 10:03:05;;;;;;;3.05;1.60;;;24.80;56.00;;;;;;4980376;28;20037;-84
2022/08/22 10:05:49;;;;;;;1.92;1.48;;;24.80;55.80;;;;;;4997001;28;20173;-81
2022/08/22 10:08:30;;;;;;;2.05;1.20;;;24.90;55.90;;;;;;5014188;28;20037;-85
2022/08/22 10:11:05;;;;;;;2.42;1.35;;;25.00;55.80;;;;;;4997443;28;20026;-83
2022/08/22 10:13:54;;;;;;;2.60;1.40;;;25.10;55.80;;;;;;4997214;28;20126;-83
2022/08/22 10:16:33;;;;;;;2.45;1.55;;;25.10;55.80;;;;;;5015969;28;20053;-86
2022/08/22 10:19:23;;;;;;;2.17;1.40;;;25.20;55.70;;;;;;5018116;28;20042;-84
2022/08/22 10:22:19;;;;;;;1.60;1.20;;;25.30;55.70;;;;;;5000696;28;20073;-86
2022/08/22 10:24:55;;;;;;;1.40;1.20;;;25.30;55.70;;;;;;5000631;28;20075;-85
2022/08/22 10:27:44;;;;;;;1.80;1.15;;;25.40;55.60;;;;;;5000669;28;20110;-84
2022/08/22 10:30:24;;;;;;;2.03;1.23;;;25.50;55.70;;;;;;4984262;28;20043;-84
2022/08/22 10:33:15;;;;;;;3.03;1.52;;;25.50;55.50;;;;;;5000969;28;20036;-86
2022/08/22 10:35:50;;;;;;;1.40;1.30;;;25.60;55.50;;;;;;5000412;28;20034;-85
2022/08/22 10:38:26;;;;;;;2.50;1.30;;;25.60;55.40;;;;;;5018105;28;20124;-85
2022/08/22 10:41:12;;;;;;;1.58;1.20;;;25.70;55.40;;;;;;5000411;28;20108;-85
2022/08/22 10:43:50;;;;;;;1.42;1.10;;;25.80;55.30;;;;;;5000760;28;20129;-84
2022/08/22 10:46:43;;;;;;;2.97;1.60;;;25.80;55.20;;;;;;5002031;28;20030;-85
2022/08/22 10:49:27;;;;;;;2.30;1.33;;;25.90;55.20;;;;;;5008404;28;20136;-84
2022/08/22 10:52:04;;;;;;;2.33;1.48;;;26.00;55.20;;;;;;5019305;28;20088;-85
2022/08/22 10:54:47;;;;;;;2.20;1.40;;;26.00;55.00;;;;;;4985823;28;20045;-85
2022/08/22 10:57:31;;;;;;;2.15;1.30;;;26.10;55.00;;;;;;5002491;28;20036;-87
2022/08/22 10:59:57;;;;;;;;;;;26.10;54.90;;;;;;5020533;28;20088;-87
2022/08/22 11:02:47;;;;;;;2.30;1.13;;;26.20;54.80;;;;;;5009165;28;19905;-85
2022/08/22 11:05:26;;;;;;;2.05;1.17;;;26.20;54.80;;;;;;5014109;28;20057;-85
2022/08/22 11:08:12;;;;;;;1.52;1.00;;;26.30;54.80;;;;;;4984695;28;20029;-85
2022/08/22 11:11:05;;;;;;;1.95;1.10;;;26.30;54.90;;;;;;5027338;28;20033;-84
2022/08/22 11:13:58;;;;;;;2.15;1.13;;;26.30;54.80;;;;;;4998834;28;20036;-85
2022/08/22 11:16:25;;;;;;;1.48;1.05;;;26.40;54.80;;;;;;5001178;28;20053;-84
2022/08/22 11:19:02;;;;;;;1.83;1.10;;;26.40;54.60;;;;;;4983179;28;20038;-84
2022/08/22 11:21:55;;;;;;;1.98;1.30;;;26.50;54.70;;;;;;4999373;28;20033;-86
2022/08/22 11:24:30;;;;;;;1.85;1.17;;;26.50;54.60;;;;;;5000049;28;20089;-86
2022/08/22 11:27:08;;;;;;;1.55;1.10;;;26.60;54.70;;;;;;4998830;28;20030;-86
2022/08/22 11:29:49;;;;;;;1.77;1.25;;;26.60;54.70;;;;;;4999171;28;20363;-85
2022/08/22 11:32:31;;;;;;;1.20;1.08;;;26.60;54.70;;;;;;4999408;28;20118;-85
2022/08/22 11:35:35;;;;;;;1.35;1.00;;;26.70;54.70;;;;;;5000015;28;20026;-86
2022/08/22 11:38:22;;;;;;;1.77;1.08;;;26.80;54.70;;;;;;4940268;29;20037;-84
2022/08/22 11:41:13;;;;;;;2.70;1.30;;;26.80;54.60;;;;;;4995701;28;20065;-85
2022/08/22 11:43:49;;;;;;;2.72;1.27;;;26.80;54.70;;;;;;4974022;28;20037;-84
2022/08/22 11:46:29;;;;;;;2.13;1.02;;;26.90;54.70;;;;;;4998925;28;20129;-84
2022/08/22 11:49:21;;;;;;;1.70;1.20;;;26.90;54.60;;;;;;4982651;28;20038;-84
2022/08/22 11:51:56;;;;;;;1.77;1.10;;;27.00;54.80;;;;;;4999866;28;20141;-84
2022/08/22 11:54:40;;;;;;;2.17;1.30;;;27.00;54.60;;;;;;4998845;28;20042;-88
2022/08/22 11:57:27;;;;;;;2.58;1.50;;;27.00;54.70;;;;;;5000182;28;20041;-85
2022/08/22 12:00:26;;;;;;;1.25;1.00;;;27.10;54.60;;;;;;5020567;28;20041;-89
2022/08/22 12:03:25;;;;;;;2.03;1.20;;;27.10;54.60;;;;;;4949234;28;20047;-83
2022/08/22 12:06:05;;;;;;;1.98;1.20;;;27.10;54.70;;;;;;5004862;28;20029;-90
2022/08/22 12:08:39;;;;;;;1.65;1.10;;;27.20;54.70;;;;;;5001015;28;20030;-89
2022/08/22 12:11:15;;;;;;;2.20;1.27;;;27.20;54.70;;;;;;4999603;28;20030;-87
2022/08/22 12:13:53;;;;;;;1.95;1.27;;;27.20;54.80;;;;;;4998720;28;20028;-88
2022/08/22 12:16:54;;;;;;;1.88;1.20;;;27.30;54.90;;;;;;4998065;28;20124;-86
2022/08/22 12:19:34;;;;;;;1.33;1.00;;;27.30;54.90;;;;;;5015148;28;20042;-83
2022/08/22 12:22:02;;;;;;;2.05;1.27;;;27.30;54.80;;;;;;4997975;28;20038;-84
2022/08/22 12:24:46;;;;;;;2.70;1.20;;;27.30;54.80;;;;;;4981788;28;20058;-84
2022/08/22 12:27:23;;;;;;;1.88;1.30;;;27.30;54.80;;;;;;5014979;28;20033;-84
2022/08/22 12:30:07;;;;;;;1.92;1.10;;;27.40;54.70;;;;;;4997867;28;20041;-84
2022/08/22 12:32:59;;;;;;;1.98;1.27;;;27.40;54.60;;;;;;5002249;28;20486;-85
2022/08/22 12:35:52;;;;;;;2.20;1.20;;;27.40;54.70;;;;;;4967121;28;20125;-84
2022/08/22 12:38:21;;;;;;;2.72;1.52;;;27.40;54.60;;;;;;5001850;28;20034;-83
2022/08/22 12:41:19;;;;;;;2.15;1.20;;;27.50;54.60;;;;;;4999866;28;20026;-83
2022/08/22 12:44:14;;;;;;;1.70;1.10;;;27.50;54.60;;;;;;4997100;28;20033;-85
2022/08/22 12:47:14;;;;;;;3.60;1.40;;;27.50;54.50;;;;;;4998132;28;20029;-85
2022/08/22 12:49:52;;;;;;;1.98;1.20;;;27.50;54.50;;;;;;4997713;28;20065;-84
2022/08/22 12:52:44;;;;;;;2.50;1.60;;;27.60;54.50;;;;;;4997271;28;20048;-85
2022/08/22 12:55:21;;;;;;;1.48;1.00;;;27.70;54.50;;;;;;4981148;28;20037;-84
2022/08/22 12:57:49;;;;;;;1.35;0.90;;;27.70;54.40;;;;;;4997291;28;20026;-84
2022/08/22 13:00:42;;;;;;;1.67;1.20;;;27.70;54.40;;;;;;4980519;28;20382;-83
2022/08/22 13:03:24;;;;;;;1.40;1.17;;;27.80;54.50;;;;;;4996838;28;20536;-84
2022/08/22 13:05:51;;;;;;;1.35;1.02;;;27.80;54.40;;;;;;4981173;28;20058;-84
2022/08/22 13:08:44;;;;;;;2.15;1.40;;;27.80;54.30;;;;;;4996742;28;20026;-85
2022/08/22 13:11:14;;;;;;;1.98;1.20;;;27.90;54.40;;;;;;4994031;28;20111;-84
2022/08/22 13:13:49;;;;;;;2.65;1.15;;;27.90;54.20;;;;;;4980523;28;20022;-84
2022/08/22 13:16:19;;;;;;;1.90;1.30;;;28.00;54.20;;;;;;5014081;28;20493;-84
2022/08/22 13:18:51;;;;;;;1.65;1.02;;;28.00;54.00;;;;;;4996530;28;20113;-88
2022/08/22 13:21:23;;;;;;;1.98;1.30;;;28.00;54.00;;;;;;4997210;28;20092;-87
2022/08/22 13:23:56;;;;;;;1.15;1.02;;;28.10;53.90;;;;;;4997712;28;20036;-88
2022/08/22 13:26:30;;;;;;;2.40;1.20;;;28.10;53.80;;;;;;5014885;28;20037;-88
2022/08/22 13:29:03;;;;;;;1.70;1.10;;;28.10;53.80;;;;;;5013790;28;20121;-83
2022/08/22 13:31:37;;;;;;;1.77;1.15;;;28.20;53.80;;;;;;4996100;28;20030;-83
2022/08/22 13:34:36;;;;;;;1.70;1.17;;;28.20;53.80;;;;;;4981220;28;20042;-84
2022/08/22 13:37:03;;;;;;;2.28;1.20;;;28.20;53.70;;;;;;4996098;28;20029;-85
2022/08/22 13:39:36;;;;;;;1.70;1.10;;;28.30;53.60;;;;;;4980153;28;20029;-83
2022/08/22 13:42:05;;;;;;;1.60;1.25;;;28.30;53.60;;;;;;4996005;28;20096;-84
2022/08/22 13:44:45;;;;;;;2.42;1.27;;;28.30;53.50;;;;;;4996422;28;20029;-83
2022/08/22 13:47:16;;;;;;;1.48;1.17;;;28.40;53.60;;;;;;4996610;28;20378;-84
2022/08/22 13:49:47;;;;;;;1.23;1.05;;;28.40;53.40;;;;;;4998176;28;20045;-82
2022/08/22 13:52:36;;;;;;;2.42;1.35;;;28.40;53.40;;;;;;4998308;28;20488;-84
2022/08/22 13:55:22;;;;;;;2.08;1.30;;;28.50;53.40;;;;;;4998374;28;20022;-83
2022/08/22 13:58:05;;;;;;;2.33;1.20;;;28.50;53.30;;;;;;5014003;28;20041;-84
2022/08/22 14:00:34;;;;;;;1.73;1.20;;;28.60;53.30;;;;;;4996046;28;20033;-85
2022/08/22 14:03:11;;;;;;;1.38;1.15;;;28.60;53.20;;;;;;5014850;28;20029;-82
2022/08/22 14:05:50;;;;;;;2.28;1.17;;;28.60;53.20;;;;;;4998110;28;20026;-84
2022/08/22 14:08:23;;;;;;;2.42;1.30;;;28.60;53.10;;;;;;4982155;28;20034;-84